createdAt,value
2022-11-24T00:00:18.360Z,2.50
2022-11-24T00:01:22.487Z,2.20
2022-11-24T00:02:25.650Z,2.37
2022-11-24T00:03:27.826Z,1.93
2022-11-24T00:04:31.218Z,2.47
2022-11-24T00:05:38.472Z,2.30
2022-11-24T00:06:41.617Z,3.20
2022-11-24T00:07:43.756Z,2.53
2022-11-24T00:08:47.642Z,2.20
2022-11-24T00:09:49.661Z,2.23
2022-11-24T00:10:52.649Z,2.50
2022-11-24T00:11:54.700Z,3.00
2022-11-24T00:12:57.724Z,2.83
2022-11-24T00:14:00.002Z,2.73
2022-11-24T00:15:03.035Z,2.20
2022-11-24T00:16:10.524Z,2.40
2022-11-24T00:17:13.564Z,2.10
2022-11-24T00:18:15.560Z,2.20
2022-11-24T00:19:19.870Z,2.50
2022-11-24T00:20:22.114Z,2.07
2022-11-24T00:21:28.390Z,2.23
2022-11-24T00:22:31.055Z,2.43
2022-11-24T00:23:34.649Z,2.77
2022-11-24T00:24:37.706Z,2.07
2022-11-24T00:25:39.738Z,2.27
2022-11-24T00:26:43.250Z,2.30
2022-11-24T00:27:45.666Z,3.00
2022-11-24T00:28:50.285Z,2.53
2022-11-24T00:29:52.384Z,2.33
2022-11-24T00:30:55.456Z,2.30
2022-11-24T00:31:57.725Z,2.23
2022-11-24T00:33:00.743Z,2.67
2022-11-24T00:34:05.505Z,2.83
2022-11-24T00:35:08.984Z,2.13
2022-11-24T00:36:11.120Z,2.73
2022-11-24T00:37:15.519Z,2.57
2022-11-24T00:38:17.548Z,2.90
2022-11-24T00:39:20.565Z,2.43
2022-11-24T00:40:22.776Z,2.50
2022-11-24T00:41:27.072Z,2.70
2022-11-24T00:42:29.440Z,3.37
2022-11-24T00:43:32.508Z,2.63
2022-11-24T00:44:35.625Z,2.43
2022-11-24T00:45:37.873Z,3.17
2022-11-24T00:46:41.052Z,2.73
2022-11-24T00:47:43.277Z,2.40
2022-11-24T00:48:46.651Z,2.80
2022-11-24T00:49:48.720Z,2.50
2022-11-24T00:51:02.828Z,2.67
2022-11-24T00:52:05.171Z,2.73
2022-11-24T00:53:09.535Z,2.70
2022-11-24T00:54:12.712Z,2.70
2022-11-24T00:55:14.930Z,2.80
2022-11-24T00:56:17.953Z,3.47
2022-11-24T00:57:19.996Z,3.23
2022-11-24T00:58:23.686Z,2.67
2022-11-24T00:59:25.723Z,3.03
2022-11-24T01:00:28.741Z,2.70
2022-11-24T01:01:32.016Z,2.30
2022-11-24T01:02:34.162Z,2.90
2022-11-24T01:03:37.532Z,2.60
2022-11-24T01:04:39.974Z,2.33
2022-11-24T01:05:43.275Z,2.83
2022-11-24T01:06:46.280Z,3.33
2022-11-24T01:07:48.403Z,2.53
2022-11-24T01:08:53.280Z,2.83
2022-11-24T01:09:55.394Z,2.67
2022-11-24T01:11:08.873Z,2.70
2022-11-24T01:12:11.068Z,3.07
2022-11-24T01:13:14.164Z,2.57
2022-11-24T01:14:16.225Z,2.20
2022-11-24T01:15:19.477Z,2.83
2022-11-24T01:16:24.091Z,2.60
2022-11-24T01:17:27.708Z,2.37
2022-11-24T01:18:29.784Z,2.83
2022-11-24T01:19:32.964Z,2.47
2022-11-24T01:20:37.553Z,2.53
2022-11-24T01:21:41.330Z,2.80
2022-11-24T01:22:43.423Z,2.80
2022-11-24T01:23:46.938Z,2.40
2022-11-24T01:24:50.343Z,2.77
2022-11-24T01:25:53.426Z,2.57
2022-11-24T01:26:55.412Z,2.70
2022-11-24T01:27:58.455Z,2.77
2022-11-24T01:29:00.581Z,2.60
2022-11-24T01:30:03.738Z,2.33
2022-11-24T01:31:07.646Z,3.07
2022-11-24T01:32:10.731Z,2.70
2022-11-24T01:33:12.784Z,2.90
2022-11-24T01:34:15.834Z,2.90
2022-11-24T01:35:18.021Z,2.93
2022-11-24T01:36:21.732Z,3.23
2022-11-24T01:37:23.772Z,2.93
2022-11-24T01:38:27.528Z,3.07
2022-11-24T01:39:29.567Z,2.60
2022-11-24T01:40:33.915Z,3.00
2022-11-24T01:41:36.113Z,2.77
2022-11-24T01:42:44.312Z,2.33
2022-11-24T01:43:48.597Z,2.87
2022-11-24T01:45:13.755Z,2.70
2022-11-24T01:46:23.696Z,3.20
2022-11-24T01:47:34.528Z,2.47
2022-11-24T01:48:42.473Z,3.03
2022-11-24T01:49:48.217Z,2.63
2022-11-24T01:50:55.921Z,3.03
2022-11-24T01:52:04.457Z,3.00
2022-11-24T01:53:07.507Z,3.13
2022-11-24T01:54:14.360Z,2.60
2022-11-24T01:55:22.088Z,3.20
2022-11-24T01:56:27.610Z,2.73
2022-11-24T01:57:33.645Z,4.17
2022-11-24T01:58:38.055Z,3.00
2022-11-24T01:59:41.191Z,2.90
2022-11-24T02:00:45.243Z,3.40
2022-11-24T02:01:51.271Z,3.20
2022-11-24T02:02:54.002Z,2.80
2022-11-24T02:03:57.722Z,2.67
2022-11-24T02:05:03.865Z,4.07
2022-11-24T02:06:10.478Z,2.80
2022-11-24T02:07:13.879Z,2.60
2022-11-24T02:08:24.997Z,3.20
2022-11-24T02:09:32.676Z,3.53
2022-11-24T02:10:36.079Z,2.97
2022-11-24T02:11:42.682Z,2.57
2022-11-24T02:12:47.683Z,2.40
2022-11-24T02:13:52.720Z,3.27
2022-11-24T02:14:55.846Z,3.70
2022-11-24T02:15:58.981Z,3.23
2022-11-24T02:17:01.326Z,2.80
2022-11-24T02:18:04.780Z,3.10
2022-11-24T02:19:16.679Z,3.03
2022-11-24T02:20:19.989Z,3.17
2022-11-24T02:21:22.130Z,2.67
2022-11-24T02:22:36.037Z,3.27
2022-11-24T02:23:44.973Z,3.40
2022-11-24T02:24:51.212Z,2.63
2022-11-24T02:26:01.896Z,3.40
2022-11-24T02:27:06.389Z,2.60
2022-11-24T02:28:12.866Z,3.10
2022-11-24T02:29:16.778Z,3.20
2022-11-24T02:30:19.108Z,3.07
2022-11-24T02:31:24.604Z,2.53
2022-11-24T02:32:27.731Z,3.20
2022-11-24T02:33:31.509Z,3.60
2022-11-24T02:34:34.316Z,2.80
2022-11-24T02:35:38.631Z,3.00
2022-11-24T02:36:41.088Z,3.40
2022-11-24T02:37:44.130Z,2.73
2022-11-24T02:38:46.309Z,3.10
2022-11-24T02:39:49.963Z,3.47
2022-11-24T02:40:54.109Z,3.00
2022-11-24T02:42:02.509Z,3.40
2022-11-24T02:43:10.925Z,3.80
2022-11-24T02:44:16.639Z,2.70
2022-11-24T02:45:19.259Z,3.07
2022-11-24T02:46:22.691Z,3.27
2022-11-24T02:47:24.958Z,3.17
2022-11-24T02:48:28.400Z,3.23
2022-11-24T02:49:31.697Z,3.13
2022-11-24T02:50:37.579Z,2.73
2022-11-24T02:51:39.905Z,2.77
2022-11-24T02:52:44.165Z,3.47
2022-11-24T02:53:46.303Z,3.13
2022-11-24T02:54:50.448Z,3.00
2022-11-24T02:55:53.285Z,2.87
2022-11-24T02:56:56.511Z,3.10
2022-11-24T02:57:58.931Z,3.17
2022-11-24T02:59:03.493Z,3.20
2022-11-24T03:00:06.604Z,3.87
2022-11-24T03:01:10.864Z,3.30
2022-11-24T03:02:13.538Z,3.53
2022-11-24T03:03:17.393Z,3.03
2022-11-24T03:04:21.424Z,3.33
2022-11-24T03:05:26.004Z,3.53
2022-11-24T03:06:28.585Z,3.47
2022-11-24T03:07:35.390Z,3.20
2022-11-24T03:08:41.857Z,3.67
2022-11-24T03:09:45.866Z,2.57
2022-11-24T03:10:49.534Z,3.73
2022-11-24T03:11:53.025Z,3.83
2022-11-24T03:12:55.311Z,3.43
2022-11-24T03:13:59.485Z,3.20
2022-11-24T03:15:03.590Z,3.77
2022-11-24T03:16:10.405Z,4.67
2022-11-24T03:17:12.999Z,3.50
2022-11-24T03:18:16.682Z,3.83
2022-11-24T03:19:22.350Z,3.60
2022-11-24T03:20:26.465Z,4.03
2022-11-24T03:21:30.456Z,3.33
2022-11-24T03:22:34.006Z,3.50
2022-11-24T03:23:36.939Z,3.43
2022-11-24T03:24:40.165Z,3.70
2022-11-24T03:25:43.263Z,3.57
2022-11-24T03:26:46.647Z,3.83
2022-11-24T03:27:49.169Z,3.63
2022-11-24T03:28:56.115Z,4.03
2022-11-24T03:29:58.407Z,4.03
2022-11-24T03:31:03.197Z,3.50
2022-11-24T03:32:05.659Z,3.53
2022-11-24T03:33:08.734Z,3.07
2022-11-24T03:34:10.882Z,3.60
2022-11-24T03:35:14.209Z,3.27
2022-11-24T03:36:23.009Z,3.77
2022-11-24T03:37:26.382Z,3.97
2022-11-24T03:38:28.776Z,3.63
2022-11-24T03:39:32.026Z,4.00
2022-11-24T03:40:34.082Z,3.70
2022-11-24T03:41:37.181Z,3.13
2022-11-24T03:42:40.068Z,3.10
2022-11-24T03:43:44.973Z,4.47
2022-11-24T03:44:47.917Z,4.30
2022-11-24T03:45:51.574Z,3.30
2022-11-24T03:46:55.466Z,3.90
2022-11-24T03:47:58.511Z,3.40
2022-11-24T03:49:00.722Z,3.70
2022-11-24T03:50:03.820Z,3.70
2022-11-24T03:51:06.261Z,4.10
2022-11-24T03:52:10.074Z,3.60
2022-11-24T03:53:13.160Z,3.63
2022-11-24T03:54:16.185Z,3.53
2022-11-24T03:55:18.279Z,3.63
2022-11-24T03:56:24.398Z,3.60
2022-11-24T03:57:29.932Z,2.60
2022-11-24T03:58:33.029Z,3.40
2022-11-24T03:59:35.173Z,3.60
2022-11-24T04:00:38.777Z,3.77
2022-11-24T04:01:42.948Z,3.40
2022-11-24T04:02:48.188Z,4.00
2022-11-24T04:03:50.380Z,3.40
2022-11-24T04:04:53.449Z,3.57
2022-11-24T04:05:55.635Z,3.43
2022-11-24T04:06:59.448Z,3.43
2022-11-24T04:08:03.653Z,3.83
2022-11-24T04:09:07.003Z,3.87
2022-11-24T04:10:09.232Z,4.30
2022-11-24T04:11:35.515Z,3.77
2022-11-24T04:12:46.538Z,3.43
2022-11-24T04:13:48.626Z,3.83
2022-11-24T04:14:50.801Z,4.10
2022-11-24T04:15:54.085Z,4.30
2022-11-24T04:16:56.411Z,4.13
2022-11-24T04:18:00.849Z,3.57
2022-11-24T04:19:07.984Z,3.40
2022-11-24T04:20:12.775Z,3.30
2022-11-24T04:21:15.669Z,3.70
2022-11-24T04:22:18.687Z,3.50
2022-11-24T04:23:20.711Z,3.33
2022-11-24T04:24:23.799Z,3.30
2022-11-24T04:25:26.454Z,3.27
2022-11-24T04:26:29.977Z,4.70
2022-11-24T04:27:33.308Z,3.37
2022-11-24T04:28:36.627Z,3.33
2022-11-24T04:29:38.685Z,3.73
2022-11-24T04:30:44.557Z,3.80
2022-11-24T04:31:47.013Z,3.63
2022-11-24T04:32:50.348Z,3.73
2022-11-24T04:33:54.447Z,4.90
2022-11-24T04:34:57.535Z,3.70
2022-11-24T04:35:59.581Z,3.60
2022-11-24T04:37:02.615Z,3.80
2022-11-24T04:38:04.660Z,4.17
2022-11-24T04:39:24.421Z,3.60
2022-11-24T04:40:28.682Z,3.73
2022-11-24T04:41:31.753Z,4.40
2022-11-24T04:42:33.871Z,3.43
2022-11-24T04:43:40.601Z,3.93
2022-11-24T04:44:43.049Z,3.83
2022-11-24T04:45:46.048Z,3.90
2022-11-24T04:46:48.436Z,4.10
2022-11-24T04:47:51.528Z,4.00
2022-11-24T04:48:54.906Z,4.13
2022-11-24T04:49:58.054Z,3.83
2022-11-24T04:51:04.202Z,3.77
2022-11-24T04:52:07.233Z,5.67
2022-11-24T04:53:10.216Z,3.67
2022-11-24T04:54:14.348Z,4.10
2022-11-24T04:55:16.634Z,4.53
2022-11-24T04:56:19.732Z,4.10
2022-11-24T04:57:24.442Z,3.70
2022-11-24T04:58:27.467Z,3.90
2022-11-24T04:59:29.548Z,4.50
2022-11-24T05:00:32.640Z,3.80
2022-11-24T05:01:34.769Z,4.20
2022-11-24T05:02:38.352Z,4.00
2022-11-24T05:03:41.485Z,4.77
2022-11-24T05:04:45.193Z,3.63
2022-11-24T05:05:48.247Z,4.60
2022-11-24T05:06:50.619Z,4.60
2022-11-24T05:07:53.777Z,4.13
2022-11-24T05:08:55.880Z,4.23
2022-11-24T05:10:17.062Z,3.50
2022-11-24T05:11:20.683Z,4.50
2022-11-24T05:12:23.398Z,4.10
2022-11-24T05:13:26.407Z,4.20
2022-11-24T05:14:28.423Z,4.47
2022-11-24T05:15:31.844Z,3.93
2022-11-24T05:16:34.145Z,4.27
2022-11-24T05:17:39.750Z,3.90
2022-11-24T05:18:42.802Z,4.00
2022-11-24T05:19:46.208Z,4.10
2022-11-24T05:20:49.609Z,4.27
2022-11-24T05:21:52.269Z,5.23
2022-11-24T05:22:55.358Z,4.13
2022-11-24T05:23:57.390Z,3.83
2022-11-24T05:25:00.428Z,4.13
2022-11-24T05:26:03.363Z,4.27
2022-11-24T05:27:06.368Z,4.20
2022-11-24T05:28:09.906Z,4.87
2022-11-24T05:29:12.965Z,4.80
2022-11-24T05:30:15.101Z,3.70
2022-11-24T05:31:18.202Z,3.47
2022-11-24T05:32:20.285Z,4.17
2022-11-24T05:33:23.706Z,3.53
2022-11-24T05:34:26.288Z,4.40
2022-11-24T05:35:30.660Z,3.50
2022-11-24T05:36:51.405Z,4.33
2022-11-24T05:37:54.432Z,3.17
2022-11-24T05:38:56.542Z,4.40
2022-11-24T05:40:00.629Z,4.13
2022-11-24T05:41:03.635Z,3.23
2022-11-24T05:42:22.398Z,3.67
2022-11-24T05:43:25.428Z,4.07
2022-11-24T05:44:27.720Z,4.00
2022-11-24T05:45:30.892Z,4.80
2022-11-24T05:46:33.038Z,4.40
2022-11-24T05:47:36.311Z,3.90
2022-11-24T05:48:39.357Z,4.23
2022-11-24T05:49:41.384Z,4.30
2022-11-24T05:50:45.811Z,3.70
2022-11-24T05:51:47.857Z,3.77
2022-11-24T05:52:51.341Z,3.30
2022-11-24T05:53:53.386Z,4.40
2022-11-24T05:54:56.416Z,3.80
2022-11-24T05:55:58.439Z,4.20
2022-11-24T05:57:01.517Z,3.60
2022-11-24T05:58:06.252Z,4.57
2022-11-24T05:59:10.141Z,4.43
2022-11-24T06:00:14.946Z,4.00
2022-11-24T06:01:16.980Z,4.00
2022-11-24T06:02:20.223Z,4.63
2022-11-24T06:03:22.431Z,4.50
2022-11-24T06:04:25.462Z,4.13
2022-11-24T06:05:29.818Z,3.80
2022-11-24T06:06:33.198Z,3.63
2022-11-24T06:07:36.322Z,4.07
2022-11-24T06:08:39.470Z,4.90
2022-11-24T06:09:42.851Z,4.23
2022-11-24T06:10:45.853Z,4.10
2022-11-24T06:11:48.311Z,4.57
2022-11-24T06:12:51.828Z,4.27
2022-11-24T06:13:53.916Z,4.47
2022-11-24T06:14:57.102Z,5.03
2022-11-24T06:15:59.574Z,4.87
2022-11-24T06:17:03.149Z,4.43
2022-11-24T06:18:06.279Z,4.27
2022-11-24T06:19:09.599Z,4.10
2022-11-24T06:20:13.119Z,4.40
2022-11-24T06:21:15.173Z,4.17
2022-11-24T06:22:19.853Z,4.80
2022-11-24T06:23:23.635Z,3.77
2022-11-24T06:24:26.712Z,3.77
2022-11-24T06:25:29.157Z,4.43
2022-11-24T06:26:32.225Z,4.20
2022-11-24T06:27:34.256Z,4.63
2022-11-24T06:28:37.355Z,4.17
2022-11-24T06:29:39.659Z,4.30
2022-11-24T06:30:42.736Z,4.30
2022-11-24T06:31:44.885Z,3.70
2022-11-24T06:32:49.992Z,3.87
2022-11-24T06:33:52.478Z,4.57
2022-11-24T06:34:55.474Z,5.07
2022-11-24T06:36:01.530Z,3.70
2022-11-24T06:37:04.644Z,3.43
2022-11-24T06:38:08.215Z,4.23
2022-11-24T06:39:11.734Z,4.30
2022-11-24T06:40:14.787Z,4.33
2022-11-24T06:41:18.154Z,4.07
2022-11-24T06:42:21.546Z,3.80
2022-11-24T06:43:23.581Z,4.40
2022-11-24T06:44:26.817Z,4.77
2022-11-24T06:45:28.877Z,4.37
2022-11-24T06:46:32.076Z,4.07
2022-11-24T06:47:34.084Z,3.67
2022-11-24T06:48:37.226Z,3.97
2022-11-24T06:49:39.297Z,3.80
2022-11-24T06:50:42.280Z,4.00
2022-11-24T06:51:47.715Z,4.40
2022-11-24T06:52:49.748Z,4.07
2022-11-24T06:53:54.112Z,4.10
2022-11-24T06:54:57.244Z,3.63
2022-11-24T06:55:59.836Z,4.23
2022-11-24T06:57:02.886Z,4.17
2022-11-24T06:58:04.946Z,4.03
2022-11-24T06:59:08.068Z,3.50
2022-11-24T07:00:12.060Z,4.33
2022-11-24T07:01:15.403Z,4.20
2022-11-24T07:02:18.535Z,3.87
2022-11-24T07:03:20.700Z,4.20
2022-11-24T07:04:23.806Z,3.03
2022-11-24T07:05:26.049Z,3.90
2022-11-24T07:06:29.190Z,3.70
2022-11-24T07:07:31.258Z,4.20
2022-11-24T07:08:34.335Z,3.77
2022-11-24T07:09:38.723Z,3.93
2022-11-24T07:10:41.025Z,4.20
2022-11-24T07:11:44.585Z,4.17
2022-11-24T07:12:47.650Z,4.00
2022-11-24T07:13:55.170Z,3.53
2022-11-24T07:15:01.240Z,3.07
2022-11-24T07:16:12.002Z,3.47
2022-11-24T07:17:14.997Z,3.57
2022-11-24T07:18:17.023Z,3.13
2022-11-24T07:19:24.602Z,3.70
2022-11-24T07:20:27.259Z,3.33
2022-11-24T07:21:31.109Z,3.00
2022-11-24T07:22:33.166Z,2.90
2022-11-24T07:23:36.199Z,3.43
2022-11-24T07:24:39.566Z,3.43
2022-11-24T07:25:42.541Z,3.27
2022-11-24T07:26:44.605Z,2.83
2022-11-24T07:27:47.705Z,3.17
2022-11-24T07:28:50.813Z,3.50
2022-11-24T07:29:53.852Z,2.40
2022-11-24T07:30:55.909Z,2.60
2022-11-24T07:32:05.003Z,3.03
2022-11-24T07:33:07.636Z,3.53
2022-11-24T07:34:10.726Z,3.77
2022-11-24T07:35:12.860Z,3.07
2022-11-24T07:36:15.910Z,3.40
2022-11-24T07:37:18.915Z,3.40
2022-11-24T07:38:21.260Z,2.97
2022-11-24T07:39:24.316Z,3.03
2022-11-24T07:40:27.868Z,2.67
2022-11-24T07:41:30.938Z,2.73
2022-11-24T07:42:33.288Z,2.80
2022-11-24T07:43:37.554Z,3.47
2022-11-24T07:44:40.704Z,3.00
2022-11-24T07:45:42.991Z,2.73
2022-11-24T07:46:46.309Z,3.07
2022-11-24T07:47:48.344Z,2.47
2022-11-24T07:48:51.440Z,3.20
2022-11-24T07:49:54.495Z,2.93
2022-11-24T07:51:00.439Z,3.37
2022-11-24T07:52:04.455Z,2.93
2022-11-24T07:53:06.559Z,3.23
2022-11-24T07:54:09.691Z,2.67
2022-11-24T07:55:11.756Z,3.33
2022-11-24T07:56:16.112Z,3.07
2022-11-24T07:57:18.220Z,2.87
2022-11-24T07:58:21.262Z,2.87
2022-11-24T07:59:24.291Z,2.97
2022-11-24T08:00:27.110Z,2.67
2022-11-24T08:01:30.142Z,3.07
2022-11-24T08:02:32.307Z,3.60
2022-11-24T08:03:36.423Z,2.80
2022-11-24T08:04:39.487Z,2.70
2022-11-24T08:06:07.676Z,3.63
2022-11-24T08:07:04.624Z,2.80
2022-11-24T08:08:06.675Z,2.87
2022-11-24T08:09:09.778Z,3.17
2022-11-24T08:10:13.253Z,3.53
2022-11-24T08:11:17.853Z,3.37
2022-11-24T08:12:22.087Z,2.67
2022-11-24T08:13:24.107Z,2.77
2022-11-24T08:14:27.133Z,3.40
2022-11-24T08:15:29.166Z,2.70
2022-11-24T08:16:32.465Z,2.87
2022-11-24T08:17:35.565Z,3.43
2022-11-24T08:18:38.740Z,2.67
2022-11-24T08:19:41.798Z,2.87
2022-11-24T08:20:43.826Z,2.80
2022-11-24T08:21:46.868Z,3.53
2022-11-24T08:22:48.886Z,3.23
2022-11-24T08:23:55.933Z,2.50
2022-11-24T08:24:57.969Z,2.63
2022-11-24T08:26:05.585Z,2.97
2022-11-24T08:27:09.940Z,2.90
2022-11-24T08:28:12.929Z,2.30
2022-11-24T08:29:15.934Z,3.20
2022-11-24T08:30:18.233Z,2.80
2022-11-24T08:31:21.356Z,3.23
2022-11-24T08:32:24.523Z,2.70
2022-11-24T08:33:26.657Z,2.80
2022-11-24T08:34:29.751Z,2.73
2022-11-24T08:35:31.790Z,3.00
2022-11-24T08:36:35.049Z,2.70
2022-11-24T08:37:37.136Z,3.00
2022-11-24T08:38:40.717Z,2.50
2022-11-24T08:39:42.771Z,3.30
2022-11-24T08:40:45.787Z,3.37
2022-11-24T08:41:48.971Z,2.97
2022-11-24T08:42:52.909Z,2.77
2022-11-24T08:43:56.605Z,3.30
2022-11-24T08:45:04.922Z,3.90
2022-11-24T08:46:21.328Z,2.83
2022-11-24T08:47:24.417Z,3.30
2022-11-24T08:48:26.489Z,3.53
2022-11-24T08:49:29.631Z,2.27
2022-11-24T08:50:33.807Z,2.90
2022-11-24T08:51:36.883Z,3.10
2022-11-24T08:52:38.918Z,2.97
2022-11-24T08:53:43.094Z,2.83
2022-11-24T08:54:46.125Z,2.77
2022-11-24T08:55:49.138Z,3.00
2022-11-24T08:56:52.132Z,2.90
2022-11-24T08:57:56.497Z,2.67
2022-11-24T08:59:00.763Z,2.73
2022-11-24T09:00:04.913Z,2.87
2022-11-24T09:01:08.320Z,3.00
2022-11-24T09:02:13.605Z,3.20
2022-11-24T09:03:15.685Z,3.13
2022-11-24T09:04:18.783Z,3.20
2022-11-24T09:05:50.008Z,2.90
2022-11-24T09:06:44.100Z,2.73
2022-11-24T09:07:47.166Z,2.90
2022-11-24T09:08:50.446Z,3.33
2022-11-24T09:09:53.459Z,3.20
2022-11-24T09:10:59.768Z,3.03
2022-11-24T09:12:02.834Z,2.80
2022-11-24T09:13:07.325Z,2.70
2022-11-24T09:14:10.406Z,2.80
2022-11-24T09:15:12.962Z,2.77
2022-11-24T09:16:18.211Z,2.37
2022-11-24T09:17:21.269Z,3.07
2022-11-24T09:18:27.595Z,2.87
2022-11-24T09:19:33.702Z,2.93
2022-11-24T09:20:37.042Z,3.47
2022-11-24T09:21:40.094Z,3.37
2022-11-24T09:22:43.097Z,3.23
2022-11-24T09:23:48.385Z,2.77
2022-11-24T09:24:50.431Z,2.73
2022-11-24T09:25:53.443Z,2.90
2022-11-24T09:26:56.997Z,3.00
2022-11-24T09:27:59.968Z,2.70
2022-11-24T09:29:06.311Z,2.13
2022-11-24T09:30:10.103Z,2.80
2022-11-24T09:31:15.735Z,2.70
2022-11-24T09:32:18.851Z,3.17
2022-11-24T09:33:20.916Z,3.47
2022-11-24T09:34:23.922Z,2.53
2022-11-24T09:35:26.954Z,3.57
2022-11-24T09:36:31.808Z,2.87
2022-11-24T09:37:35.610Z,2.93
2022-11-24T09:38:37.791Z,2.63
2022-11-24T09:39:40.805Z,3.67
2022-11-24T09:40:42.960Z,2.80
2022-11-24T09:42:12.335Z,2.93
2022-11-24T09:43:25.739Z,2.80
2022-11-24T09:44:51.803Z,2.93
2022-11-24T09:46:05.831Z,2.97
2022-11-24T09:47:17.620Z,3.33
2022-11-24T09:48:27.167Z,3.10
2022-11-24T09:49:37.570Z,3.03
2022-11-24T09:50:40.711Z,3.17
2022-11-24T09:51:48.027Z,2.87
2022-11-24T09:52:54.308Z,2.87
2022-11-24T09:54:03.631Z,2.80
2022-11-24T09:55:23.119Z,3.23
2022-11-24T09:56:28.980Z,2.27
2022-11-24T09:57:37.640Z,3.03
2022-11-24T09:58:46.595Z,3.00
2022-11-24T09:59:51.073Z,3.03
2022-11-24T10:00:55.666Z,3.20
2022-11-24T10:01:59.033Z,3.27
2022-11-24T10:03:01.225Z,3.17
2022-11-24T10:04:06.593Z,3.70
2022-11-24T10:05:12.034Z,3.17
2022-11-24T10:06:24.268Z,3.60
2022-11-24T10:07:31.555Z,3.33
2022-11-24T10:08:50.549Z,2.90
2022-11-24T10:10:01.121Z,2.80
2022-11-24T10:11:10.376Z,3.60
2022-11-24T10:12:35.252Z,3.70
2022-11-24T10:14:05.171Z,3.40
2022-11-24T10:15:22.532Z,5.20
2022-11-24T10:16:36.693Z,5.53
2022-11-24T10:18:05.129Z,3.80
2022-11-24T10:19:18.846Z,4.73
2022-11-24T10:20:28.346Z,4.93
2022-11-24T10:21:46.059Z,4.70
2022-11-24T10:22:59.270Z,2.87
2022-11-24T10:24:22.300Z,3.43
2022-11-24T10:25:31.638Z,3.17
2022-11-24T10:26:36.622Z,3.90
2022-11-24T10:27:43.992Z,2.97
2022-11-24T10:28:53.946Z,3.73
2022-11-24T10:29:57.724Z,2.80
2022-11-24T10:31:18.779Z,3.13
2022-11-24T10:32:27.378Z,3.57
2022-11-24T10:33:31.235Z,3.03
2022-11-24T10:34:35.204Z,2.73
2022-11-24T10:35:42.292Z,3.37
2022-11-24T10:36:52.409Z,3.17
2022-11-24T10:38:03.284Z,2.97
2022-11-24T10:39:14.517Z,3.40
2022-11-24T10:40:49.207Z,2.80
2022-11-24T10:41:52.312Z,3.20
2022-11-24T10:42:54.386Z,3.13
2022-11-24T10:43:59.852Z,3.13
2022-11-24T10:45:10.343Z,2.97
2022-11-24T10:46:17.453Z,2.70
2022-11-24T10:47:22.784Z,3.13
2022-11-24T10:48:27.703Z,2.30
2022-11-24T10:49:33.723Z,3.47
2022-11-24T10:50:39.344Z,2.90
2022-11-24T10:51:50.181Z,3.23
2022-11-24T10:53:01.547Z,2.93
2022-11-24T10:54:13.544Z,2.83
2022-11-24T10:55:16.733Z,2.53
2022-11-24T10:56:18.783Z,3.13
2022-11-24T10:57:29.725Z,2.97
2022-11-24T10:58:37.661Z,3.17
2022-11-24T10:59:41.418Z,2.53
2022-11-24T11:00:43.538Z,2.80
2022-11-24T11:01:47.971Z,3.07
2022-11-24T11:02:52.513Z,2.53
2022-11-24T11:03:57.887Z,3.00
2022-11-24T11:05:28.786Z,2.73
2022-11-24T11:06:33.032Z,2.53
2022-11-24T11:07:35.098Z,3.17
2022-11-24T11:08:38.301Z,2.70
2022-11-24T11:09:40.382Z,2.53
2022-11-24T11:10:43.834Z,2.40
2022-11-24T11:11:48.248Z,2.67
2022-11-24T11:12:51.566Z,2.83
2022-11-24T11:14:03.048Z,2.80
2022-11-24T11:15:24.161Z,2.70
2022-11-24T11:16:33.620Z,3.10
2022-11-24T11:17:38.920Z,2.57
2022-11-24T11:18:49.712Z,2.60
2022-11-24T11:20:00.331Z,2.53
2022-11-24T11:21:06.188Z,3.43
2022-11-24T11:22:24.016Z,2.50
2022-11-24T11:23:30.276Z,2.83
2022-11-24T11:24:33.988Z,2.53
2022-11-24T11:25:38.170Z,2.30
2022-11-24T11:26:42.251Z,2.93
2022-11-24T11:27:46.338Z,2.50
2022-11-24T11:31:14.723Z,2.47
2022-11-24T11:34:54.304Z,2.90
2022-11-24T11:35:58.354Z,2.30
2022-11-24T11:37:01.561Z,2.60
2022-11-24T11:38:06.706Z,2.30
2022-11-24T11:39:23.044Z,2.50
2022-11-24T11:40:29.146Z,2.50
2022-11-24T11:41:34.839Z,2.53
2022-11-24T11:44:20.241Z,2.20
2022-11-24T11:45:27.392Z,2.73
2022-11-24T11:46:32.854Z,2.70
2022-11-24T11:47:42.055Z,2.97
2022-11-24T11:48:47.691Z,2.50
2022-11-24T11:49:50.856Z,2.47
2022-11-24T11:51:22.137Z,2.63
2022-11-24T11:52:59.941Z,2.57
2022-11-24T11:54:09.235Z,2.20
2022-11-24T11:55:38.420Z,2.77
2022-11-24T11:56:45.334Z,2.50
2022-11-24T11:57:57.613Z,2.37
2022-11-24T11:59:31.956Z,2.17
2022-11-24T12:00:39.816Z,2.47
2022-11-24T12:02:05.372Z,2.47
2022-11-24T12:03:30.336Z,2.67
2022-11-24T12:04:44.451Z,2.63
2022-11-24T12:05:56.344Z,2.70
2022-11-24T12:07:29.781Z,2.73
2022-11-24T12:09:11.541Z,2.53
2022-11-24T12:10:17.745Z,2.50
2022-11-24T12:11:27.023Z,3.10
2022-11-24T12:12:45.521Z,2.40
2022-11-24T12:14:15.261Z,2.23
2022-11-24T12:15:27.023Z,2.77
2022-11-24T12:16:41.855Z,2.80
2022-11-24T12:17:52.208Z,2.33
2022-11-24T12:19:08.971Z,2.90
2022-11-24T12:20:28.322Z,3.00
2022-11-24T12:21:36.770Z,2.50
2022-11-24T12:22:47.463Z,2.30
2022-11-24T12:24:00.275Z,2.93
2022-11-24T12:25:19.174Z,2.40
2022-11-24T12:26:33.777Z,2.67
2022-11-24T12:27:46.459Z,2.43
2022-11-24T12:29:00.960Z,2.67
2022-11-24T12:30:11.252Z,2.60
2022-11-24T12:31:25.054Z,2.77
2022-11-24T12:32:54.911Z,2.77
2022-11-24T12:34:25.397Z,2.43
2022-11-24T12:35:36.785Z,2.60
2022-11-24T12:36:53.669Z,1.97
2022-11-24T12:38:09.383Z,2.50
2022-11-24T12:39:25.441Z,2.40
2022-11-24T12:40:46.900Z,2.60
2022-11-24T12:42:02.788Z,2.57
2022-11-24T12:43:11.946Z,2.17
2022-11-24T12:44:31.787Z,2.53
2022-11-24T12:45:41.038Z,2.67
2022-11-24T12:46:52.638Z,2.97
2022-11-24T12:48:08.656Z,2.20
2022-11-24T12:49:21.574Z,2.57
2022-11-24T12:50:27.899Z,2.47
2022-11-24T12:51:36.164Z,3.10
2022-11-24T12:52:43.732Z,2.67
2022-11-24T12:53:47.990Z,2.50
2022-11-24T12:54:51.004Z,2.33
2022-11-24T12:55:55.721Z,2.87
2022-11-24T12:57:06.363Z,2.87
2022-11-24T12:58:15.466Z,2.40
2022-11-24T12:59:27.913Z,2.50
2022-11-24T13:00:37.824Z,2.60
2022-11-24T13:01:47.480Z,2.37
2022-11-24T13:03:14.348Z,2.20
2022-11-24T13:04:32.328Z,2.57
2022-11-24T13:05:44.421Z,2.80
2022-11-24T13:06:55.452Z,2.33
2022-11-24T13:08:00.376Z,2.07
2022-11-24T13:09:09.976Z,2.43
2022-11-24T13:12:12.415Z,2.30
2022-11-24T13:13:15.441Z,2.53
2022-11-24T13:14:23.961Z,2.50
2022-11-24T13:15:45.096Z,2.43
2022-11-24T13:18:43.734Z,2.20
2022-11-24T13:19:47.868Z,2.40
2022-11-24T13:20:50.929Z,2.37
2022-11-24T13:22:15.157Z,2.60
2022-11-24T13:23:27.475Z,2.43
2022-11-24T13:24:31.168Z,2.20
2022-11-24T13:25:36.029Z,2.10
2022-11-24T13:26:47.217Z,2.70
2022-11-24T13:27:52.997Z,2.50
2022-11-24T13:29:08.906Z,1.80
2022-11-24T13:31:00.249Z,2.27
2022-11-24T13:32:52.650Z,2.40
2022-11-24T13:33:55.729Z,2.07
2022-11-24T13:35:13.903Z,2.17
2022-11-24T13:36:33.748Z,2.13
2022-11-24T13:37:52.669Z,1.93
2022-11-24T13:38:55.843Z,2.80
2022-11-24T13:40:00.476Z,2.30
2022-11-24T13:41:21.382Z,2.10
2022-11-24T13:42:42.994Z,2.47
2022-11-24T13:44:26.307Z,2.30
2022-11-24T13:45:53.750Z,2.50
2022-11-24T13:47:03.251Z,3.07
2022-11-24T13:48:55.043Z,2.27
2022-11-24T13:50:00.152Z,2.70
2022-11-24T13:51:22.998Z,2.10
2022-11-24T13:52:46.030Z,1.97
2022-11-24T13:53:49.609Z,2.50
2022-11-24T13:54:53.729Z,2.40
2022-11-24T13:56:00.569Z,2.53
2022-11-24T13:57:34.483Z,2.20
2022-11-24T13:58:39.483Z,2.00
2022-11-24T13:59:42.114Z,2.40
2022-11-24T14:01:04.448Z,2.93
2022-11-24T14:02:24.245Z,2.70
2022-11-24T14:03:30.050Z,2.40
2022-11-24T14:04:35.683Z,2.23
2022-11-24T14:05:46.592Z,2.10
2022-11-24T14:06:56.044Z,2.77
2022-11-24T14:07:59.219Z,1.70
2022-11-24T14:09:07.522Z,2.40
2022-11-24T14:10:16.618Z,2.43
2022-11-24T14:11:18.961Z,2.20
2022-11-24T14:12:23.947Z,2.70
2022-11-24T14:13:27.771Z,1.80
2022-11-24T14:14:30.820Z,2.40
2022-11-24T14:15:35.399Z,2.27
2022-11-24T14:16:38.533Z,2.23
2022-11-24T14:17:41.707Z,2.70
2022-11-24T14:18:45.516Z,2.43
2022-11-24T14:19:50.480Z,2.10
2022-11-24T14:20:53.837Z,2.80
2022-11-24T14:21:56.952Z,2.33
2022-11-24T14:23:00.680Z,2.40
2022-11-24T14:24:12.958Z,2.67
2022-11-24T14:25:29.875Z,2.73
2022-11-24T14:26:35.386Z,2.00
2022-11-24T14:27:40.083Z,2.43
2022-11-24T14:28:42.234Z,2.70
2022-11-24T14:29:56.678Z,2.50
2022-11-24T14:31:09.895Z,2.30
2022-11-24T14:32:16.826Z,1.90
2022-11-24T14:33:21.255Z,2.67
2022-11-24T14:34:26.115Z,2.33
2022-11-24T14:35:31.546Z,2.23
2022-11-24T14:36:36.056Z,2.53
2022-11-24T14:37:39.097Z,2.47
2022-11-24T14:38:41.454Z,2.20
2022-11-24T14:39:44.548Z,2.17
2022-11-24T14:40:50.599Z,2.77
2022-11-24T14:41:56.771Z,2.60
2022-11-24T14:42:59.847Z,2.57
2022-11-24T14:44:17.080Z,3.47
2022-11-24T14:45:20.468Z,2.83
2022-11-24T14:46:22.541Z,2.50
2022-11-24T14:47:31.723Z,3.17
2022-11-24T14:48:38.690Z,2.73
2022-11-24T14:49:44.013Z,2.27
2022-11-24T14:50:46.538Z,2.63
2022-11-24T14:51:56.991Z,2.63